Wetterdaten: Woche 16.12.24 - 22.12.24 (KW51)
Datum Zeit Temp. I. Temp. A. Feuchte I. Feuchte A. Luftdruck Regen Wind Richtung Sonnenschein Solar Taupunkt Windchill Windböen
16.12.2024 00:00 21,7 °C 7,5 °C 54 % 90 % 1023,8 hPa 0,0 l/m² 16,2 km/h (3 Bft) SW 0,00 h 0 W/m² 6,0 °C 1,8 °C 21,0 km/h (4 Bft)
16.12.2024 01:00 21,6 °C 8,1 °C 54 % 89 % 1023,5 hPa 0,0 l/m² 12,9 km/h (3 Bft) SW 0,00 h 0 W/m² 6,4 °C 4,0 °C 17,9 km/h (3 Bft)
16.12.2024 02:00 21,5 °C 8,6 °C 54 % 88 % 1023,4 hPa 0,0 l/m² 18,0 km/h (3 Bft) SW 0,00 h 0 W/m² 6,7 °C 2,2 °C 24,4 km/h (4 Bft)
16.12.2024 03:00 21,4 °C 9,3 °C 54 % 87 % 1023,3 hPa 0,0 l/m² 22,3 km/h (4 Bft) W-SW 0,00 h 0 W/m² 7,2 °C 1,8 °C 31,7 km/h (5 Bft)
16.12.2024 04:00 21,5 °C 9,9 °C 54 % 85 % 1023,3 hPa 0,0 l/m² 27,9 km/h (5 Bft) W-SW 0,00 h 0 W/m² 7,5 °C 1,0 °C 38,5 km/h (6 Bft)
16.12.2024 05:00 21,4 °C 9,9 °C 54 % 85 % 1023,4 hPa 0,0 l/m² 24,7 km/h (4 Bft) SW 0,00 h 0 W/m² 7,4 °C 1,9 °C 33,9 km/h (5 Bft)
16.12.2024 06:00 21,4 °C 9,6 °C 54 % 86 % 1023,6 hPa 0,0 l/m² 22,0 km/h (4 Bft) SW 0,00 h 0 W/m² 7,3 °C 2,2 °C 30,5 km/h (5 Bft)
16.12.2024 07:00 21,4 °C 9,5 °C 54 % 87 % 1024,4 hPa 0,0 l/m² 19,3 km/h (3 Bft) SW 0,00 h 0 W/m² 7,3 °C 2,9 °C 25,5 km/h (4 Bft)
16.12.2024 08:00 21,3 °C 9,4 °C 53 % 87 % 1025,2 hPa 0,0 l/m² 15,0 km/h (3 Bft) SW 0,00 h 7 W/m² 7,4 °C 4,5 °C 20,2 km/h (4 Bft)
16.12.2024 09:00 21,3 °C 9,4 °C 53 % 89 % 1025,9 hPa 0,0 l/m² 19,1 km/h (3 Bft) SW 0,00 h 8 W/m² 7,7 °C 2,9 °C 26,1 km/h (4 Bft)
16.12.2024 10:00 21,3 °C 9,4 °C 53 % 90 % 1026,5 hPa 0,0 l/m² 20,1 km/h (4 Bft) SW 0,00 h 16 W/m² 7,9 °C 2,5 °C 26,7 km/h (4 Bft)
16.12.2024 11:00 21,3 °C 9,7 °C 53 % 91 % 1026,9 hPa 0,0 l/m² 19,8 km/h (3 Bft) SW 0,10 h 36 W/m² 8,2 °C 3,0 °C 25,9 km/h (4 Bft)
16.12.2024 12:00 21,3 °C 10,2 °C 53 % 89 % 1026,7 hPa 0,0 l/m² 20,7 km/h (4 Bft) SW 0,82 h 67 W/m² 8,6 °C 3,4 °C 27,5 km/h (5 Bft)
16.12.2024 13:00 21,3 °C 10,3 °C 54 % 90 % 1026,5 hPa 0,0 l/m² 15,0 km/h (3 Bft) SW 0,00 h 35 W/m² 8,8 °C 5,6 °C 19,8 km/h (4 Bft)
16.12.2024 14:00 21,2 °C 10,0 °C 54 % 91 % 1026,1 hPa 0,0 l/m² 13,3 km/h (3 Bft) S-SW 0,00 h 20 W/m² 8,6 °C 6,0 °C 17,4 km/h (3 Bft)
16.12.2024 15:00 21,3 °C 9,8 °C 53 % 92 % 1025,9 hPa 0,0 l/m² 11,6 km/h (2 Bft) SW 0,00 h 10 W/m² 8,5 °C 6,6 °C 15,1 km/h (3 Bft)
16.12.2024 16:00 21,4 °C 9,8 °C 54 % 91 % 1025,9 hPa 0,0 l/m² 11,7 km/h (2 Bft) SW 0,00 h 0 W/m² 8,4 °C 6,6 °C 15,5 km/h (3 Bft)
16.12.2024 17:00 21,3 °C 9,8 °C 55 % 90 % 1025,9 hPa 0,0 l/m² 11,8 km/h (2 Bft) W-SW 0,00 h 0 W/m² 8,3 °C 6,6 °C 16,4 km/h (3 Bft)
16.12.2024 18:00 21,3 °C 9,7 °C 57 % 90 % 1025,8 hPa 0,0 l/m² 14,3 km/h (3 Bft) W-SW 0,00 h 0 W/m² 8,1 °C 5,1 °C 19,1 km/h (3 Bft)
16.12.2024 19:00 21,4 °C 9,8 °C 58 % 89 % 1025,8 hPa 0,0 l/m² 17,4 km/h (3 Bft) SW 0,00 h 0 W/m² 8,0 °C 4,0 °C 23,0 km/h (4 Bft)
16.12.2024 20:00 22,2 °C 9,7 °C 57 % 89 % 1025,7 hPa 0,0 l/m² 17,6 km/h (3 Bft) SW 0,00 h 0 W/m² 8,0 °C 3,9 °C 23,1 km/h (4 Bft)
16.12.2024 21:00 22,6 °C 9,9 °C 57 % 86 % 1025,8 hPa 0,0 l/m² 20,8 km/h (4 Bft) W-SW 0,00 h 0 W/m² 7,6 °C 2,9 °C 27,4 km/h (5 Bft)
16.12.2024 22:00 22,0 °C 9,5 °C 56 % 85 % 1025,5 hPa 0,0 l/m² 20,3 km/h (4 Bft) W-SW 0,00 h 0 W/m² 7,1 °C 2,6 °C 25,7 km/h (4 Bft)
16.12.2024 23:00 21,6 °C 9,7 °C 56 % 83 % 1025,7 hPa 0,0 l/m² 16,9 km/h (3 Bft) W-SW 0,00 h 0 W/m² 6,9 °C 4,1 °C 22,5 km/h (4 Bft)
17.12.2024 00:00 21,6 °C 10,1 °C 56 % 79 % 1025,8 hPa 0,0 l/m² 18,5 km/h (3 Bft) W-SW 0,00 h 0 W/m² 6,6 °C 4,0 °C 25,9 km/h (4 Bft)
17.12.2024 01:00 21,5 °C 9,7 °C 56 % 79 % 1025,5 hPa 0,0 l/m² 18,6 km/h (3 Bft) SW 0,00 h 0 W/m² 6,2 °C 3,4 °C 24,5 km/h (4 Bft)
17.12.2024 02:00 21,4 °C 9,4 °C 56 % 79 % 1025,1 hPa 0,0 l/m² 20,7 km/h (4 Bft) SW 0,00 h 0 W/m² 6,0 °C 2,3 °C 28,1 km/h (5 Bft)
17.12.2024 03:00 21,3 °C 9,3 °C 56 % 80 % 1025,3 hPa 0,0 l/m² 17,1 km/h (3 Bft) SW 0,00 h 0 W/m² 6,0 °C 3,4 °C 24,2 km/h (4 Bft)
17.12.2024 04:00 21,3 °C 9,4 °C 56 % 81 % 1025,3 hPa 0,0 l/m² 16,7 km/h (3 Bft) SW 0,00 h 0 W/m² 6,3 °C 3,7 °C 23,5 km/h (4 Bft)
17.12.2024 05:00 21,3 °C 9,1 °C 56 % 82 % 1025,3 hPa 0,0 l/m² 16,4 km/h (3 Bft) SW 0,00 h 0 W/m² 6,2 °C 3,5 °C 21,6 km/h (4 Bft)
17.12.2024 06:00 21,3 °C 9,1 °C 56 % 83 % 1025,5 hPa 0,0 l/m² 20,3 km/h (4 Bft) SW 0,00 h 0 W/m² 6,4 °C 2,1 °C 26,9 km/h (4 Bft)
17.12.2024 07:00 21,2 °C 9,0 °C 55 % 83 % 1025,7 hPa 0,0 l/m² 18,4 km/h (3 Bft) SW 0,00 h 0 W/m² 6,3 °C 2,6 °C 25,2 km/h (4 Bft)
17.12.2024 08:00 21,2 °C 8,7 °C 55 % 84 % 1026,2 hPa 0,0 l/m² 17,7 km/h (3 Bft) W-SW 0,00 h 10 W/m² 6,2 °C 2,6 °C 23,1 km/h (4 Bft)
17.12.2024 09:00 21,2 °C 8,5 °C 55 % 85 % 1026,6 hPa 0,0 l/m² 12,9 km/h (3 Bft) SW 0,42 h 45 W/m² 6,1 °C 4,3 °C 17,1 km/h (3 Bft)
17.12.2024 10:00 21,2 °C 8,8 °C 55 % 86 % 1027,0 hPa 0,0 l/m² 12,8 km/h (3 Bft) SW 0,30 h 49 W/m² 6,5 °C 4,7 °C 17,7 km/h (3 Bft)
17.12.2024 11:00 21,5 °C 10,0 °C 54 % 83 % 1026,8 hPa 0,0 l/m² 16,8 km/h (3 Bft) SW 1,00 h 183 W/m² 7,2 °C 4,5 °C 24,2 km/h (4 Bft)
17.12.2024 12:00 22,1 °C 11,1 °C 53 % 79 % 1026,5 hPa 0,0 l/m² 18,5 km/h (3 Bft) SW 1,02 h 247 W/m² 7,7 °C 5,3 °C 26,3 km/h (4 Bft)
17.12.2024 13:00 22,1 °C 11,3 °C 53 % 78 % 1026,6 hPa 0,0 l/m² 22,3 km/h (4 Bft) W-SW 1,00 h 220 W/m² 7,5 °C 4,3 °C 30,1 km/h (5 Bft)
17.12.2024 14:00 22,0 °C 10,5 °C 53 % 79 % 1026,4 hPa 0,0 l/m² 20,0 km/h (4 Bft) W-SW 0,97 h 99 W/m² 7,0 °C 4,1 °C 26,6 km/h (4 Bft)
17.12.2024 15:00 21,8 °C 9,6 °C 54 % 80 % 1026,5 hPa 0,0 l/m² 14,6 km/h (3 Bft) SW 0,03 h 25 W/m² 6,4 °C 5,0 °C 21,0 km/h (4 Bft)
17.12.2024 16:00 21,7 °C 8,8 °C 54 % 84 % 1026,4 hPa 0,0 l/m² 12,8 km/h (3 Bft) SW 0,00 h 0 W/m² 6,2 °C 4,9 °C 17,5 km/h (3 Bft)
17.12.2024 17:00 21,6 °C 7,6 °C 53 % 88 % 1026,3 hPa 0,0 l/m² 6,2 km/h (2 Bft) S-SW 0,00 h 0 W/m² 5,7 °C 6,8 °C 8,8 km/h (2 Bft)
17.12.2024 18:00 21,6 °C 6,6 °C 54 % 90 % 1026,1 hPa 0,0 l/m² 4,4 km/h (1 Bft) S-SW 0,00 h 0 W/m² 5,0 °C 6,4 °C 6,4 km/h (2 Bft)
17.12.2024 19:00 21,6 °C 5,8 °C 54 % 90 % 1026,0 hPa 0,0 l/m² 3,4 km/h (1 Bft) S-SW 0,00 h 0 W/m² 4,3 °C 5,6 °C 5,5 km/h (2 Bft)
17.12.2024 20:00 21,6 °C 4,9 °C 54 % 91 % 1025,8 hPa 0,0 l/m² 1,0 km/h (0 Bft) S-SW 0,00 h 0 W/m² 3,5 °C 4,9 °C 2,6 km/h (1 Bft)
17.12.2024 21:00 21,8 °C 4,2 °C 55 % 91 % 1025,2 hPa 0,0 l/m² 1,3 km/h (1 Bft) S-SW 0,00 h 0 W/m² 2,9 °C 4,2 °C 2,8 km/h (1 Bft)
17.12.2024 22:00 21,8 °C 4,3 °C 55 % 92 % 1024,5 hPa 0,0 l/m² 2,0 km/h (1 Bft) S-SW 0,00 h 0 W/m² 3,1 °C 4,1 °C 3,6 km/h (1 Bft)
17.12.2024 23:00 21,6 °C 4,8 °C 55 % 91 % 1024,0 hPa 0,0 l/m² 3,2 km/h (1 Bft) S-SW 0,00 h 0 W/m² 3,6 °C 4,7 °C 5,3 km/h (1 Bft)
18.12.2024 00:00 21,5 °C 4,7 °C 54 % 90 % 1023,0 hPa 0,0 l/m² 6,8 km/h (2 Bft) SO 0,00 h 0 W/m² 3,3 °C 3,7 °C 10,3 km/h (2 Bft)
18.12.2024 01:00 21,5 °C 4,5 °C 54 % 90 % 1022,0 hPa 0,0 l/m² 6,7 km/h (2 Bft) S-SO 0,00 h 0 W/m² 3,1 °C 3,5 °C 9,7 km/h (2 Bft)
18.12.2024 02:00 21,4 °C 4,9 °C 55 % 90 % 1021,5 hPa 0,0 l/m² 4,2 km/h (1 Bft) S-SO 0,00 h 0 W/m² 3,4 °C 4,7 °C 7,0 km/h (2 Bft)
18.12.2024 03:00 21,4 °C 5,1 °C 55 % 90 % 1020,4 hPa 0,0 l/m² 6,8 km/h (2 Bft) O-SO 0,00 h 0 W/m² 3,5 °C 4,4 °C 10,2 km/h (2 Bft)
18.12.2024 04:00 21,3 °C 5,3 °C 55 % 89 % 1019,5 hPa 0,0 l/m² 8,0 km/h (2 Bft) SO 0,00 h 0 W/m² 3,6 °C 3,8 °C 12,1 km/h (2 Bft)
18.12.2024 05:00 21,5 °C 5,4 °C 54 % 89 % 1018,5 hPa 0,0 l/m² 6,4 km/h (2 Bft) S-SO 0,00 h 0 W/m² 3,7 °C 4,7 °C 9,8 km/h (2 Bft)
18.12.2024 06:00 21,4 °C 5,4 °C 54 % 89 % 1017,5 hPa 0,0 l/m² 7,3 km/h (2 Bft) SW 0,00 h 0 W/m² 3,8 °C 3,7 °C 10,3 km/h (2 Bft)
18.12.2024 07:00 21,4 °C 5,9 °C 53 % 89 % 1017,0 hPa 0,0 l/m² 1,7 km/h (1 Bft) S-SW 0,00 h 0 W/m² 4,1 °C 5,8 °C 3,3 km/h (1 Bft)
18.12.2024 08:00 21,4 °C 5,5 °C 53 % 89 % 1016,7 hPa 0,0 l/m² 3,3 km/h (1 Bft) S-SW 0,00 h 9 W/m² 3,8 °C 5,3 °C 5,5 km/h (2 Bft)
18.12.2024 09:00 21,4 °C 7,0 °C 54 % 86 % 1016,3 hPa 0,2 l/m² 10,4 km/h (2 Bft) SW 0,00 h 22 W/m² 4,7 °C 3,5 °C 16,1 km/h (3 Bft)
18.12.2024 10:00 21,3 °C 8,4 °C 53 % 79 % 1016,1 hPa 0,0 l/m² 18,4 km/h (3 Bft) S-SW 0,28 h 44 W/m² 5,0 °C 2,1 °C 25,0 km/h (4 Bft)
18.12.2024 11:00 21,3 °C 8,8 °C 53 % 77 % 1015,5 hPa 0,0 l/m² 15,7 km/h (3 Bft) S-SW 0,27 h 45 W/m² 5,1 °C 3,6 °C 21,4 km/h (4 Bft)
18.12.2024 12:00 21,4 °C 9,8 °C 53 % 77 % 1014,5 hPa 0,0 l/m² 15,8 km/h (3 Bft) S-SW 1,00 h 113 W/m² 6,0 °C 4,6 °C 21,0 km/h (4 Bft)
18.12.2024 13:00 21,4 °C 10,5 °C 53 % 78 % 1013,4 hPa 0,0 l/m² 17,0 km/h (3 Bft) S 0,82 h 79 W/m² 6,8 °C 5,0 °C 23,3 km/h (4 Bft)
18.12.2024 14:00 21,3 °C 11,4 °C 53 % 74 % 1012,6 hPa 0,0 l/m² 23,2 km/h (4 Bft) S-SW 0,37 h 49 W/m² 6,8 °C 4,3 °C 30,7 km/h (5 Bft)
18.12.2024 15:00 21,4 °C 11,5 °C 53 % 75 % 1012,6 hPa 0,0 l/m² 14,1 km/h (3 Bft) SW 0,03 h 25 W/m² 7,2 °C 7,5 °C 19,1 km/h (3 Bft)
18.12.2024 16:00 21,4 °C 11,1 °C 52 % 76 % 1012,3 hPa 0,0 l/m² 11,3 km/h (2 Bft) SW 0,00 h 0 W/m² 7,0 °C 8,2 °C 15,3 km/h (3 Bft)
18.12.2024 17:00 21,3 °C 11,0 °C 52 % 75 % 1012,1 hPa 0,0 l/m² 16,6 km/h (3 Bft) S-SW 0,00 h 0 W/m² 6,8 °C 5,8 °C 21,8 km/h (4 Bft)
18.12.2024 18:00 21,4 °C 11,0 °C 53 % 75 % 1012,4 hPa 0,0 l/m² 17,4 km/h (3 Bft) SW 0,00 h 0 W/m² 6,8 °C 5,6 °C 23,5 km/h (4 Bft)
18.12.2024 19:00 21,3 °C 11,4 °C 52 % 76 % 1012,3 hPa 0,0 l/m² 17,3 km/h (3 Bft) SW 0,00 h 0 W/m² 7,2 °C 6,0 °C 23,4 km/h (4 Bft)
18.12.2024 20:00 21,3 °C 11,6 °C 52 % 76 % 1012,1 hPa 0,0 l/m² 15,5 km/h (3 Bft) SW 0,00 h 0 W/m² 7,6 °C 6,9 °C 20,9 km/h (4 Bft)
18.12.2024 21:00 21,3 °C 11,6 °C 53 % 77 % 1011,8 hPa 0,0 l/m² 14,5 km/h (3 Bft) SW 0,00 h 0 W/m² 7,7 °C 7,4 °C 19,6 km/h (3 Bft)
18.12.2024 22:00 21,3 °C 11,7 °C 54 % 77 % 1011,2 hPa 0,0 l/m² 15,1 km/h (3 Bft) SW 0,00 h 0 W/m² 7,9 °C 7,3 °C 20,9 km/h (4 Bft)
18.12.2024 23:00 21,2 °C 11,4 °C 54 % 79 % 1010,4 hPa 0,0 l/m² 15,9 km/h (3 Bft) S-SW 0,00 h 0 W/m² 7,9 °C 6,6 °C 21,4 km/h (4 Bft)
19.12.2024 00:00 21,2 °C 11,6 °C 54 % 79 % 1009,8 hPa 0,0 l/m² 15,9 km/h (3 Bft) S 0,00 h 0 W/m² 8,1 °C 6,8 °C 21,3 km/h (4 Bft)
19.12.2024 01:00 21,2 °C 11,4 °C 54 % 80 % 1008,8 hPa 0,0 l/m² 8,7 km/h (2 Bft) O 0,00 h 0 W/m² 8,0 °C 9,9 °C 12,1 km/h (2 Bft)
19.12.2024 02:00 21,2 °C 10,9 °C 54 % 80 % 1007,1 hPa 0,0 l/m² 8,8 km/h (2 Bft) O 0,00 h 0 W/m² 7,6 °C 9,2 °C 12,7 km/h (3 Bft)
19.12.2024 03:00 21,1 °C 10,9 °C 54 % 79 % 1005,6 hPa 0,0 l/m² 12,3 km/h (2 Bft) S 0,00 h 0 W/m² 7,5 °C 7,7 °C 18,1 km/h (3 Bft)
19.12.2024 04:00 21,1 °C 11,6 °C 54 % 79 % 1004,2 hPa 0,0 l/m² 25,7 km/h (4 Bft) S-SW 0,00 h 0 W/m² 8,1 °C 3,9 °C 34,0 km/h (5 Bft)
19.12.2024 05:00 21,2 °C 11,5 °C 55 % 81 % 1003,4 hPa 0,0 l/m² 11,1 km/h (2 Bft) S-SO 0,00 h 0 W/m² 8,4 °C 8,8 °C 15,9 km/h (3 Bft)
19.12.2024 06:00 21,2 °C 11,7 °C 55 % 82 % 1001,7 hPa 0,0 l/m² 15,3 km/h (3 Bft) S-SO 0,00 h 0 W/m² 8,7 °C 7,2 °C 20,8 km/h (4 Bft)
19.12.2024 07:00 21,1 °C 11,8 °C 54 % 83 % 1000,3 hPa 0,0 l/m² 16,1 km/h (3 Bft) S-SO 0,00 h 0 W/m² 9,0 °C 7,2 °C 22,3 km/h (4 Bft)
19.12.2024 08:00 21,1 °C 12,0 °C 54 % 83 % 999,3 hPa 0,0 l/m² 14,2 km/h (3 Bft) S 0,00 h 11 W/m² 9,1 °C 8,1 °C 18,8 km/h (3 Bft)
19.12.2024 09:00 21,1 °C 12,6 °C 54 % 83 % 998,5 hPa 0,0 l/m² 17,4 km/h (3 Bft) S-SW 0,00 h 19 W/m² 9,7 °C 7,6 °C 23,3 km/h (4 Bft)
19.12.2024 10:00 21,1 °C 12,4 °C 54 % 85 % 997,2 hPa 0,0 l/m² 20,1 km/h (4 Bft) S-SW 0,82 h 92 W/m² 10,0 °C 6,4 °C 26,3 km/h (4 Bft)
19.12.2024 11:00 21,2 °C 13,1 °C 54 % 82 % 996,8 hPa 0,0 l/m² 19,4 km/h (3 Bft) S-SW 0,52 h 54 W/m² 10,0 °C 7,5 °C 25,4 km/h (4 Bft)
19.12.2024 12:00 21,2 °C 13,1 °C 54 % 82 % 996,1 hPa 0,0 l/m² 16,9 km/h (3 Bft) S-SW 0,40 h 48 W/m² 10,1 °C 8,4 °C 22,2 km/h (4 Bft)
19.12.2024 13:00 21,1 °C 13,3 °C 54 % 81 % 995,1 hPa 0,0 l/m² 14,9 km/h (3 Bft) S-SW 0,20 h 44 W/m² 10,1 °C 9,3 °C 19,1 km/h (3 Bft)
19.12.2024 14:00 21,1 °C 13,5 °C 54 % 79 % 993,9 hPa 0,0 l/m² 21,8 km/h (4 Bft) S-SW 0,15 h 32 W/m² 9,9 °C 7,4 °C 28,0 km/h (5 Bft)
19.12.2024 15:00 21,2 °C 13,1 °C 54 % 78 % 993,5 hPa 0,0 l/m² 22,4 km/h (4 Bft) SW 0,00 h 17 W/m² 9,4 °C 6,9 °C 28,5 km/h (5 Bft)
19.12.2024 16:00 21,2 °C 10,9 °C 54 % 84 % 994,3 hPa 5,8 l/m² 20,0 km/h (4 Bft) W-SW 0,00 h 0 W/m² 8,4 °C 4,6 °C 26,3 km/h (4 Bft)
19.12.2024 17:00 21,4 °C 8,7 °C 57 % 89 % 995,5 hPa 1,2 l/m² 12,3 km/h (2 Bft) W 0,00 h 0 W/m² 7,0 °C 5,1 °C 18,8 km/h (3 Bft)
19.12.2024 18:00 21,6 °C 8,0 °C 58 % 89 % 996,6 hPa 0,0 l/m² 10,7 km/h (2 Bft) W 0,00 h 0 W/m² 6,3 °C 5,1 °C 15,2 km/h (3 Bft)
19.12.2024 19:00 21,7 °C 7,7 °C 58 % 89 % 998,2 hPa 0,8 l/m² 17,3 km/h (3 Bft) W 0,00 h 0 W/m² 6,0 °C 2,0 °C 25,1 km/h (4 Bft)
19.12.2024 20:00 21,8 °C 5,9 °C 57 % 89 % 1000,4 hPa 0,4 l/m² 19,7 km/h (3 Bft) W-NW 0,00 h 0 W/m² 4,2 °C -1,6 °C 30,5 km/h (5 Bft)
19.12.2024 21:00 21,9 °C 5,3 °C 56 % 88 % 1002,5 hPa 0,0 l/m² 15,8 km/h (3 Bft) W 0,00 h 0 W/m² 3,5 °C -0,8 °C 22,5 km/h (4 Bft)
19.12.2024 22:00 21,7 °C 5,2 °C 56 % 87 % 1003,7 hPa 0,0 l/m² 13,8 km/h (3 Bft) W-SW 0,00 h 0 W/m² 3,3 °C 0,1 °C 18,6 km/h (3 Bft)
19.12.2024 23:00 21,6 °C 4,8 °C 56 % 87 % 1004,6 hPa 0,0 l/m² 13,8 km/h (3 Bft) SW 0,00 h 0 W/m² 2,8 °C -0,4 °C 18,5 km/h (3 Bft)
20.12.2024 00:00 21,5 °C 4,6 °C 56 % 85 % 1005,4 hPa 0,0 l/m² 11,8 km/h (2 Bft) SW 0,00 h 0 W/m² 2,3 °C 0,5 °C 16,8 km/h (3 Bft)
20.12.2024 01:00 21,4 °C 4,7 °C 56 % 85 % 1006,4 hPa 0,0 l/m² 11,2 km/h (2 Bft) SW 0,00 h 0 W/m² 2,4 °C 1,0 °C 16,5 km/h (3 Bft)
20.12.2024 02:00 21,4 °C 4,9 °C 56 % 86 % 1007,4 hPa 0,0 l/m² 11,1 km/h (2 Bft) SW 0,00 h 0 W/m² 2,7 °C 1,2 °C 15,7 km/h (3 Bft)
20.12.2024 03:00 21,4 °C 4,8 °C 56 % 86 % 1008,3 hPa 0,0 l/m² 13,3 km/h (3 Bft) SW 0,00 h 0 W/m² 2,7 °C -0,1 °C 18,8 km/h (3 Bft)
20.12.2024 04:00 21,3 °C 4,5 °C 56 % 86 % 1009,0 hPa 0,0 l/m² 16,5 km/h (3 Bft) SW 0,00 h 0 W/m² 2,5 °C -2,1 °C 22,3 km/h (4 Bft)
20.12.2024 05:00 21,3 °C 4,6 °C 56 % 86 % 1010,0 hPa 0,0 l/m² 18,3 km/h (3 Bft) W-SW 0,00 h 0 W/m² 2,5 °C -2,9 °C 25,1 km/h (4 Bft)
20.12.2024 06:00 21,3 °C 4,0 °C 56 % 87 % 1010,9 hPa 0,0 l/m² 16,2 km/h (3 Bft) W-SW 0,00 h 0 W/m² 2,0 °C -2,6 °C 21,4 km/h (4 Bft)
20.12.2024 07:00 21,2 °C 3,9 °C 52 % 87 % 1012,0 hPa 0,0 l/m² 18,3 km/h (3 Bft) SW 0,00 h 0 W/m² 1,9 °C -3,7 °C 24,0 km/h (4 Bft)
20.12.2024 08:00 21,1 °C 4,3 °C 53 % 87 % 1013,1 hPa 0,0 l/m² 20,0 km/h (4 Bft) W-SW 0,00 h 11 W/m² 2,3 °C -4,1 °C 25,8 km/h (4 Bft)
20.12.2024 09:00 21,4 °C 4,5 °C 53 % 86 % 1014,2 hPa 0,0 l/m² 18,1 km/h (3 Bft) W-SW 0,55 h 63 W/m² 2,4 °C -3,0 °C 22,9 km/h (4 Bft)
20.12.2024 10:00 22,3 °C 5,5 °C 52 % 83 % 1015,1 hPa 0,0 l/m² 18,8 km/h (3 Bft) W-SW 1,00 h 165 W/m² 2,8 °C -2,0 °C 23,9 km/h (4 Bft)
20.12.2024 11:00 22,6 °C 6,7 °C 52 % 77 % 1015,6 hPa 0,0 l/m² 22,6 km/h (4 Bft) W-SW 1,00 h 236 W/m² 2,9 °C -1,9 °C 29,5 km/h (5 Bft)
20.12.2024 12:00 22,6 °C 7,2 °C 52 % 77 % 1016,0 hPa 0,0 l/m² 22,6 km/h (4 Bft) W-SW 1,00 h 267 W/m² 3,5 °C -1,2 °C 29,2 km/h (5 Bft)
20.12.2024 13:00 22,5 °C 6,8 °C 52 % 77 % 1016,5 hPa 0,0 l/m² 21,0 km/h (4 Bft) W-SW 1,00 h 192 W/m² 3,1 °C -1,1 °C 27,7 km/h (5 Bft)
20.12.2024 14:00 22,3 °C 6,4 °C 52 % 78 % 1016,9 hPa 0,0 l/m² 20,2 km/h (4 Bft) SW 0,90 h 111 W/m² 2,8 °C -1,4 °C 26,2 km/h (4 Bft)
20.12.2024 15:00 22,0 °C 5,1 °C 50 % 82 % 1017,3 hPa 0,0 l/m² 14,7 km/h (3 Bft) W-SW 0,00 h 21 W/m² 2,3 °C -0,6 °C 19,6 km/h (3 Bft)
20.12.2024 16:00 21,8 °C 4,1 °C 51 % 83 % 1017,7 hPa 0,0 l/m² 13,6 km/h (3 Bft) SW 0,00 h 5 W/m² 1,6 °C -1,2 °C 18,0 km/h (3 Bft)
20.12.2024 17:00 21,7 °C 4,1 °C 52 % 84 % 1018,1 hPa 0,0 l/m² 15,0 km/h (3 Bft) SW 0,00 h 0 W/m² 1,6 °C -2,0 °C 20,4 km/h (4 Bft)
20.12.2024 18:00 21,8 °C 3,9 °C 52 % 84 % 1018,4 hPa 0,0 l/m² 10,9 km/h (2 Bft) SW 0,00 h 0 W/m² 1,5 °C 0,3 °C 14,4 km/h (3 Bft)
20.12.2024 19:00 22,2 °C 3,1 °C 55 % 88 % 1018,7 hPa 0,0 l/m² 10,7 km/h (2 Bft) SW 0,00 h 0 W/m² 1,3 °C -0,2 °C 14,0 km/h (3 Bft)
20.12.2024 20:00 22,8 °C 3,2 °C 55 % 86 % 1019,1 hPa 0,0 l/m² 13,3 km/h (3 Bft) SW 0,00 h 0 W/m² 1,0 °C -2,0 °C 17,5 km/h (3 Bft)
20.12.2024 21:00 23,0 °C 2,6 °C 55 % 86 % 1019,5 hPa 0,0 l/m² 14,9 km/h (3 Bft) SW 0,00 h 0 W/m² 0,5 °C -3,6 °C 20,0 km/h (4 Bft)
20.12.2024 22:00 23,0 °C 2,0 °C 55 % 86 % 1019,6 hPa 0,0 l/m² 6,9 km/h (2 Bft) SW 0,00 h 0 W/m² -0,1 °C 1,0 °C 9,5 km/h (2 Bft)
20.12.2024 23:00 22,7 °C 1,6 °C 56 % 87 % 1019,5 hPa 0,0 l/m² 5,9 km/h (2 Bft) SW 0,00 h 0 W/m² -0,4 °C -0,1 °C 9,2 km/h (2 Bft)
21.12.2024 00:00 22,2 °C 2,0 °C 56 % 86 % 1019,0 hPa 0,0 l/m² 11,2 km/h (2 Bft) SW 0,00 h 0 W/m² -0,1 °C -2,0 °C 15,8 km/h (3 Bft)
21.12.2024 01:00 22,0 °C 2,1 °C 56 % 85 % 1018,6 hPa 0,0 l/m² 19,6 km/h (3 Bft) S-SW 0,00 h 0 W/m² -0,1 °C -6,7 °C 26,2 km/h (4 Bft)
21.12.2024 02:00 21,8 °C 2,0 °C 56 % 85 % 1018,2 hPa 0,0 l/m² 19,9 km/h (4 Bft) S-SW 0,00 h 0 W/m² -0,3 °C -7,0 °C 25,8 km/h (4 Bft)
21.12.2024 03:00 21,7 °C 2,0 °C 56 % 86 % 1017,9 hPa 0,0 l/m² 15,2 km/h (3 Bft) S-SW 0,00 h 0 W/m² -0,2 °C -4,6 °C 19,5 km/h (3 Bft)
21.12.2024 04:00 21,6 °C 2,7 °C 56 % 85 % 1017,6 hPa 0,0 l/m² 13,4 km/h (3 Bft) S 0,00 h 0 W/m² 0,5 °C -2,6 °C 18,1 km/h (3 Bft)
21.12.2024 05:00 21,6 °C 3,1 °C 56 % 85 % 1017,1 hPa 0,0 l/m² 10,6 km/h (2 Bft) S-SO 0,00 h 0 W/m² 0,9 °C -0,3 °C 15,6 km/h (3 Bft)
21.12.2024 06:00 21,6 °C 3,6 °C 56 % 85 % 1016,6 hPa 0,0 l/m² 10,7 km/h (2 Bft) S-SO 0,00 h 0 W/m² 1,4 °C 0,1 °C 15,3 km/h (3 Bft)
21.12.2024 07:00 21,5 °C 4,0 °C 56 % 85 % 1016,3 hPa 0,0 l/m² 8,3 km/h (2 Bft) S 0,00 h 0 W/m² 1,7 °C 2,1 °C 12,2 km/h (2 Bft)
21.12.2024 08:00 21,5 °C 4,5 °C 56 % 84 % 1015,9 hPa 0,0 l/m² 16,7 km/h (3 Bft) S-SW 0,00 h 11 W/m² 2,0 °C -2,3 °C 21,5 km/h (4 Bft)
21.12.2024 09:00 21,6 °C 4,9 °C 56 % 83 % 1015,9 hPa 0,0 l/m² 15,6 km/h (3 Bft) S-SW 0,28 h 34 W/m² 2,3 °C -1,3 °C 19,8 km/h (3 Bft)
21.12.2024 10:00 21,5 °C 5,4 °C 55 % 83 % 1015,7 hPa 0,0 l/m² 14,5 km/h (3 Bft) S-SW 0,25 h 48 W/m² 2,8 °C 0,3 °C 19,1 km/h (3 Bft)
21.12.2024 11:00 21,4 °C 6,2 °C 53 % 83 % 1015,0 hPa 0,0 l/m² 22,3 km/h (4 Bft) S-SW 0,95 h 102 W/m² 3,5 °C -2,2 °C 30,4 km/h (5 Bft)
21.12.2024 12:00 21,4 °C 6,3 °C 56 % 83 % 1014,6 hPa 0,0 l/m² 18,0 km/h (3 Bft) S-SW 0,20 h 42 W/m² 3,6 °C -0,6 °C 23,3 km/h (4 Bft)
21.12.2024 13:00 21,5 °C 6,5 °C 56 % 83 % 1014,0 hPa 0,0 l/m² 18,5 km/h (3 Bft) SW 0,53 h 63 W/m² 3,8 °C -0,5 °C 24,6 km/h (4 Bft)
21.12.2024 14:00 21,6 °C 6,5 °C 56 % 82 % 1013,5 hPa 0,0 l/m² 17,6 km/h (3 Bft) S-SW 0,03 h 19 W/m² 3,7 °C -0,2 °C 22,4 km/h (4 Bft)
21.12.2024 15:00 21,8 °C 6,4 °C 57 % 83 % 1013,3 hPa 0,0 l/m² 15,5 km/h (3 Bft) S-SW 0,00 h 11 W/m² 3,7 °C 0,6 °C 19,8 km/h (3 Bft)
21.12.2024 16:00 21,9 °C 6,4 °C 57 % 84 % 1012,6 hPa 0,0 l/m² 14,1 km/h (3 Bft) S-SW 0,00 h 0 W/m² 3,8 °C 1,2 °C 18,0 km/h (3 Bft)
21.12.2024 17:00 21,7 °C 6,1 °C 55 % 85 % 1011,6 hPa 0,0 l/m² 13,3 km/h (3 Bft) S 0,00 h 0 W/m² 3,8 °C 1,4 °C 18,1 km/h (3 Bft)
21.12.2024 18:00 21,7 °C 5,8 °C 56 % 86 % 1010,6 hPa 0,0 l/m² 13,7 km/h (3 Bft) S 0,00 h 0 W/m² 3,7 °C 0,8 °C 18,1 km/h (3 Bft)
21.12.2024 19:00 22,2 °C 5,6 °C 56 % 88 % 1009,1 hPa 0,8 l/m² 18,7 km/h (3 Bft) S 0,00 h 0 W/m² 3,8 °C -1,7 °C 26,0 km/h (4 Bft)
21.12.2024 20:00 22,6 °C 5,7 °C 57 % 89 % 1007,7 hPa 0,0 l/m² 21,7 km/h (4 Bft) S 0,00 h 0 W/m² 4,1 °C -2,7 °C 29,9 km/h (5 Bft)
21.12.2024 21:00 22,7 °C 6,2 °C 57 % 88 % 1006,5 hPa 0,0 l/m² 19,4 km/h (3 Bft) S 0,00 h 0 W/m² 4,3 °C -1,2 °C 26,0 km/h (4 Bft)
21.12.2024 22:00 22,4 °C 7,0 °C 56 % 84 % 1005,1 hPa 0,0 l/m² 20,3 km/h (4 Bft) S-SW 0,00 h 0 W/m² 4,5 °C -0,5 °C 28,0 km/h (5 Bft)
21.12.2024 23:00 22,0 °C 7,1 °C 56 % 84 % 1003,8 hPa 0,0 l/m² 25,4 km/h (4 Bft) S-SW 0,00 h 0 W/m² 4,6 °C -2,1 °C 33,9 km/h (5 Bft)
22.12.2024 00:00 21,9 °C 7,1 °C 55 % 85 % 1002,7 hPa 0,0 l/m² 27,0 km/h (4 Bft) S-SW 0,00 h 0 W/m² 4,7 °C -2,6 °C 36,2 km/h (5 Bft)
22.12.2024 01:00 21,8 °C 6,8 °C 55 % 86 % 1001,2 hPa 0,2 l/m² 27,1 km/h (5 Bft) S-SW 0,00 h 0 W/m² 4,6 °C -3,0 °C 37,1 km/h (5 Bft)
22.12.2024 02:00 21,7 °C 7,1 °C 55 % 86 % 1000,3 hPa 0,0 l/m² 24,4 km/h (4 Bft) S-SW 0,00 h 0 W/m² 5,0 °C -1,7 °C 33,4 km/h (5 Bft)
22.12.2024 03:00 21,6 °C 7,4 °C 55 % 86 % 1000,1 hPa 0,0 l/m² 15,3 km/h (3 Bft) SW 0,00 h 0 W/m² 5,2 °C 2,1 °C 21,0 km/h (4 Bft)
22.12.2024 04:00 21,6 °C 7,6 °C 55 % 87 % 999,0 hPa 0,0 l/m² 18,1 km/h (3 Bft) SW 0,00 h 0 W/m² 5,6 °C 0,9 °C 24,4 km/h (4 Bft)
22.12.2024 05:00 21,6 °C 7,6 °C 55 % 87 % 997,9 hPa 0,0 l/m² 15,4 km/h (3 Bft) SW 0,00 h 0 W/m² 5,5 °C 2,1 °C 21,1 km/h (4 Bft)
22.12.2024 06:00 21,6 °C 7,3 °C 55 % 87 % 997,2 hPa 0,2 l/m² 14,2 km/h (3 Bft) S-SW 0,00 h 0 W/m² 5,3 °C 2,4 °C 19,0 km/h (3 Bft)
22.12.2024 07:00 21,5 °C 7,2 °C 55 % 89 % 996,3 hPa 0,4 l/m² 6,3 km/h (2 Bft) S-SW 0,00 h 0 W/m² 5,5 °C 6,0 °C 9,3 km/h (2 Bft)
22.12.2024 08:00 21,5 °C 6,6 °C 56 % 90 % 996,1 hPa 0,0 l/m² 12,2 km/h (2 Bft) SW 0,00 h 7 W/m² 5,0 °C 2,5 °C 15,9 km/h (3 Bft)
22.12.2024 09:00 21,8 °C 6,2 °C 57 % 89 % 996,0 hPa 0,2 l/m² 11,5 km/h (2 Bft) SW 0,22 h 33 W/m² 4,6 °C 2,5 °C 15,7 km/h (3 Bft)
22.12.2024 10:00 21,9 °C 6,0 °C 56 % 88 % 995,9 hPa 0,2 l/m² 14,1 km/h (3 Bft) SW 0,37 h 48 W/m² 4,1 °C 0,8 °C 20,0 km/h (4 Bft)
22.12.2024 11:00 21,9 °C 6,1 °C 55 % 86 % 995,6 hPa 0,0 l/m² 14,0 km/h (3 Bft) SW 0,50 h 117 W/m² 4,0 °C 1,0 °C 19,3 km/h (3 Bft)
22.12.2024 12:00 21,9 °C 6,1 °C 55 % 85 % 995,6 hPa 0,4 l/m² 10,9 km/h (2 Bft) SW 0,13 h 31 W/m² 3,7 °C 2,9 °C 15,7 km/h (3 Bft)
22.12.2024 13:00 21,9 °C 5,1 °C 56 % 88 % 995,6 hPa 0,0 l/m² 13,3 km/h (3 Bft) SW 0,68 h 69 W/m² 3,3 °C 0,2 °C 17,9 km/h (3 Bft)
22.12.2024 14:00 21,9 °C 5,0 °C 56 % 87 % 995,9 hPa 0,0 l/m² 14,7 km/h (3 Bft) SW 0,33 h 50 W/m² 3,0 °C -0,7 °C 20,1 km/h (4 Bft)
22.12.2024 15:00 22,0 °C 4,9 °C 54 % 87 % 996,3 hPa 0,0 l/m² 12,2 km/h (2 Bft) SW 0,08 h 19 W/m² 3,0 °C 0,7 °C 16,3 km/h (3 Bft)
22.12.2024 16:00 21,7 °C 4,3 °C 54 % 89 % 997,2 hPa 0,8 l/m² 13,1 km/h (3 Bft) SW 0,00 h 5 W/m² 2,6 °C -0,5 °C 17,6 km/h (3 Bft)
22.12.2024 17:00 21,6 °C 3,2 °C 54 % 89 % 998,0 hPa 3,0 l/m² 5,2 km/h (1 Bft) S-SW 0,00 h 0 W/m² 1,6 °C 2,5 °C 8,1 km/h (2 Bft)
22.12.2024 18:00 21,7 °C 3,1 °C 56 % 91 % 998,6 hPa 0,2 l/m² 11,3 km/h (2 Bft) SW 0,00 h 0 W/m² 1,8 °C -0,9 °C 16,0 km/h (3 Bft)
22.12.2024 19:00 21,8 °C 3,4 °C 57 % 90 % 999,2 hPa 0,0 l/m² 14,3 km/h (3 Bft) SW 0,00 h 0 W/m² 2,0 °C -2,4 °C 19,6 km/h (3 Bft)
22.12.2024 20:00 22,1 °C 3,3 °C 57 % 88 % 1000,1 hPa 0,0 l/m² 15,4 km/h (3 Bft) SW 0,00 h 0 W/m² 1,6 °C -3,1 °C 21,1 km/h (4 Bft)
22.12.2024 21:00 22,3 °C 3,4 °C 58 % 87 % 1000,9 hPa 0,0 l/m² 14,6 km/h (3 Bft) SW 0,00 h 0 W/m² 1,4 °C -2,5 °C 19,9 km/h (4 Bft)
22.12.2024 22:00 22,3 °C 3,6 °C 58 % 85 % 1001,6 hPa 0,0 l/m² 16,6 km/h (3 Bft) SW 0,00 h 0 W/m² 1,4 °C -3,4 °C 22,0 km/h (4 Bft)
22.12.2024 23:00 21,9 °C 3,5 °C 57 % 86 % 1002,0 hPa 0,0 l/m² 16,1 km/h (3 Bft) SW 0,00 h 0 W/m² 1,4 °C -3,3 °C 21,7 km/h (4 Bft)
Min-Datum _ 20.12.24 20.12.24 20.12.24 18.12.24 19.12.24 - 22.12.24 - - - 20.12.24 21.12.24 22.12.24
_ Min-Zeit 09:01 23:19 18:00 14:15 15:18 - 17:47 - - - 23:19 02:28 17:47
Minimum _ 21,1 °C 1,2 °C 50 % 73 % 993,4 hPa - 0,0 km/h (0 Bft) - - - -0,9 °C -8,7 °C 0,0 km/h (0 Bft)
Max-Datum _ 20.12.24 19.12.24 22.12.24 17.12.24 17.12.24 19.12.24 18.12.24 - 16.12.24 20.12.24 19.12.24 19.12.24 16.12.24
_ Max-Zeit 23:00 14:00 22:01 23:00 11:00 16:21 14:01 - 12:48 12:36 12:40 09:22 04:17
Maximum _ 23,1 °C 13,6 °C 59 % 92 % 1027,2 hPa 5,8 l/m² 39,5 km/h
S-SW (6 Bft)
- 0,07 h 369 W/m² 10,3 °C 12,2 °C 51,5 km/h
W-SW (7 Bft)
Durchschnitt _ 21,6 °C 7,4 °C 55 % 85 % 1013,3 hPa #14,8 l/m² 15,1 km/h (3 Bft) SW #20:31 h 21 W/m² 5,0 °C 2,3 °C 20,5 km/h (4 Bft)
© 2009 Mathias Hoßbach